首页
METAR-TAF:

METAR-TAF

机场 :

空军基地

Solenzara, 法国

纬度: 41-55N, 经度: 009-24E, 海拔: 8米

当前天气观测

该预报发布于42分钟前的22:00 UTC
风速5节,风向西
温度 27°C
湿度 51%
气压 1020 hPa
能见度10公里或以上
1500米以下无云,无积雨云

METAR: LFKS 262200Z AUTO 27005KT CAVOK 27/16 Q1020

时间: 00:42 (22:42 UTC)

预报

该预报发布于6小时和41分钟前的16:01 UTC
预报有效从26日的 16点(UTC)到 27日的 15点(UTC)
风速5节,风向东北
能见度10公里或以上
1500米以下无云,无积雨云

TAF: LFKS 261601Z 2616/2715 04005KT CAVOK

超过4000个机场的气象观测和天气预报(METAR&TAF报告)。

可查询的气象台以黄色和红色小点在地图上表示。

将鼠标移到小点上方,可查看气象台名称。

然后点击查看天气观测和预报。

如需切换地图:点击带黑十字的绿色按钮放大地图;点击带横线的绿色按钮缩小地图;或者点击绿色箭头查看邻近地区的地图。


METAR-TAF: